Time;durP1;ratioP1;P1;durP2;ratioP2;P2;SDS_P1;SDS_P2;PMS_P1;PMS_P2;Temp;Humidity;BMP_temperature;BMP_pressure;BME280_temperature;BME280_humidity;BME280_pressure;Samples;Min_cycle;Max_cycle;Signal;HPM_P1;HPM_P2
2021/10/25 00:00:05;;;;;;;10.35;5.78;;;;;;;5.13;65.22;96150.84;5094121;28;20417;-69
2021/10/25 00:02:30;;;;;;;12.23;6.20;;;;;;;5.06;65.83;96157.13;5085231;28;20177;-69
2021/10/25 00:04:56;;;;;;;9.25;5.90;;;;;;;5.05;65.39;96155.47;5091660;28;20448;-69
2021/10/25 00:07:22;;;;;;;10.25;5.68;;;;;;;4.98;65.77;96141.16;5092263;28;20451;-69
2021/10/25 00:09:47;;;;;;;11.65;6.70;;;;;;;4.93;65.69;96136.19;5090547;28;20017;-69
2021/10/25 00:12:12;;;;;;;11.15;6.35;;;;;;;4.98;65.78;96145.47;5108204;28;20092;-69
2021/10/25 00:14:38;;;;;;;11.73;6.35;;;;;;;4.90;66.34;96136.31;5110722;28;20031;-69
2021/10/25 00:17:03;;;;;;;10.80;6.05;;;;;;;4.81;66.54;96128.94;5110721;28;20032;-69
2021/10/25 00:19:30;;;;;;;10.93;6.43;;;;;;;4.83;66.57;96139.19;5110569;28;20047;-69
2021/10/25 00:21:55;;;;;;;9.93;6.18;;;;;;;4.70;66.60;96121.63;5110583;28;20485;-69
2021/10/25 00:24:21;;;;;;;11.23;6.05;;;;;;;4.78;66.82;96125.66;5111845;28;20038;-69
2021/10/25 00:26:46;;;;;;;11.77;6.75;;;;;;;4.79;66.99;96137.63;5111989;28;20035;-69
2021/10/25 00:29:11;;;;;;;11.73;6.22;;;;;;;4.79;67.37;96141.06;5111472;28;20023;-69
2021/10/25 00:31:37;;;;;;;13.23;6.60;;;;;;;4.75;67.70;96144.63;5091297;28;20052;-69
2021/10/25 00:34:03;;;;;;;12.32;7.32;;;;;;;4.75;67.81;96142.06;5091314;28;20016;-69
2021/10/25 00:36:29;;;;;;;9.23;6.35;;;;;;;4.76;67.42;96130.03;5101050;28;20093;-69
2021/10/25 00:38:54;;;;;;;15.20;7.07;;;;;;;4.91;67.88;96148.28;5110819;28;20024;-69
2021/10/25 00:41:20;;;;;;;12.93;6.82;;;;;;;4.97;67.66;96143.81;5110313;28;20032;-69
2021/10/25 00:43:45;;;;;;;14.18;7.28;;;;;;;5.05;67.56;96149.50;5093157;28;20043;-69
2021/10/25 00:46:11;;;;;;;9.90;6.50;;;;;;;4.99;67.80;96137.69;5090369;28;20036;-69
2021/10/25 00:48:37;;;;;;;12.98;6.80;;;;;;;5.10;67.85;96145.00;5090673;28;20028;-69
2021/10/25 00:51:03;;;;;;;10.40;6.82;;;;;;;5.08;67.92;96136.50;5098823;28;20407;-69
2021/10/25 00:53:30;;;;;;;9.90;6.43;;;;;;;5.09;67.61;96138.16;5093304;28;20054;-69
2021/10/25 00:55:56;;;;;;;13.68;6.80;;;;;;;5.10;67.69;96140.69;5091493;28;20027;-69
2021/10/25 00:58:22;;;;;;;14.75;6.63;;;;;;;5.26;67.77;96147.78;5110221;28;20091;-70
2021/10/25 01:00:47;;;;;;;10.38;6.47;;;;;;;5.17;67.73;96143.84;5091680;28;20044;-69
2021/10/25 01:03:13;;;;;;;11.77;6.50;;;;;;;5.23;67.69;96140.16;5072896;28;20509;-69
2021/10/25 01:05:38;;;;;;;12.35;6.07;;;;;;;5.21;67.54;96137.69;5101591;28;20425;-70
2021/10/25 01:08:04;;;;;;;9.20;5.68;;;;;;;5.26;67.38;96147.78;5114202;28;20027;-69
2021/10/25 01:10:30;;;;;;;11.38;6.88;;;;;;;5.24;67.19;96137.53;5115655;28;20034;-69
2021/10/25 01:12:56;;;;;;;9.82;6.20;;;;;;;5.23;67.27;96138.44;5114080;28;20504;-70
2021/10/25 01:15:21;;;;;;;11.02;6.75;;;;;;;5.21;67.14;96147.97;5080627;28;20032;-69
2021/10/25 01:17:53;;;;;;;10.73;6.65;;;;;;;5.15;67.13;96137.91;5094804;28;20024;-69
2021/10/25 01:20:18;;;;;;;10.80;6.35;;;;;;;5.13;67.61;96150.03;5108922;28;20118;-69
2021/10/25 01:22:44;;;;;;;10.30;6.10;;;;;;;5.08;67.55;96146.78;5115149;28;20466;-70
2021/10/25 01:25:09;;;;;;;9.45;5.72;;;;;;;5.09;67.41;96145.88;5115122;28;20481;-69
2021/10/25 01:27:35;;;;;;;10.43;6.20;;;;;;;5.04;67.29;96142.66;5111868;28;20035;-69
2021/10/25 01:30:00;;;;;;;12.18;6.72;;;;;;;5.01;67.54;96147.91;5093440;28;20043;-69
2021/10/25 01:32:25;;;;;;;10.82;6.93;;;;;;;4.99;67.37;96147.16;5093479;28;20060;-69
2021/10/25 01:34:51;;;;;;;16.20;7.30;;;;;;;4.95;67.68;96133.56;5093401;28;20089;-69
2021/10/25 01:37:16;;;;;;;10.48;6.43;;;;;;;4.95;67.44;96141.28;5093141;28;20089;-69
2021/10/25 01:39:42;;;;;;;12.40;7.15;;;;;;;4.97;67.60;96141.22;5113314;28;20031;-69
2021/10/25 01:42:07;;;;;;;11.25;7.05;;;;;;;4.96;67.48;96142.97;5113833;28;20028;-69
2021/10/25 01:44:34;;;;;;;10.55;7.20;;;;;;;4.93;67.47;96138.78;5096875;28;20084;-69
2021/10/25 01:47:00;;;;;;;12.32;5.97;;;;;;;4.89;67.91;96124.34;5088562;28;20032;-69
2021/10/25 01:49:26;;;;;;;11.95;6.95;;;;;;;4.98;67.65;96135.16;5093168;28;20032;-69
2021/10/25 01:51:51;;;;;;;13.63;7.00;;;;;;;4.92;67.62;96125.94;5076304;28;20043;-69
2021/10/25 01:54:16;;;;;;;11.45;6.82;;;;;;;4.97;67.58;96138.66;5076429;28;20035;-69
2021/10/25 01:56:42;;;;;;;11.57;6.45;;;;;;;4.88;67.97;96132.97;5093119;28;20399;-69
2021/10/25 01:59:08;;;;;;;10.95;6.43;;;;;;;4.85;67.91;96138.25;5094200;28;20067;-69
2021/10/25 02:01:34;;;;;;;10.82;7.18;;;;;;;4.84;68.30;96146.00;5112524;28;20024;-69
2021/10/25 02:04:02;;;;;;;12.00;6.55;;;;;;;4.80;68.16;96136.75;5096427;28;20462;-69
2021/10/25 02:06:27;;;;;;;14.68;7.50;;;;;;;4.77;68.31;96140.28;5096323;28;20059;-69
2021/10/25 02:08:53;;;;;;;11.27;6.80;;;;;;;4.76;68.39;96127.44;5095687;28;20035;-69
2021/10/25 02:11:18;;;;;;;11.25;6.28;;;;;;;4.83;68.41;96139.19;5075916;28;20040;-69
2021/10/25 02:13:45;;;;;;;11.55;6.90;;;;;;;4.83;67.97;96134.88;5095014;28;20031;-69
2021/10/25 02:16:11;;;;;;;12.18;7.45;;;;;;;4.81;68.05;96126.38;5093621;28;20036;-69
2021/10/25 02:18:37;;;;;;;12.27;7.00;;;;;;;4.75;68.46;96129.19;5092576;28;20031;-69
2021/10/25 02:21:02;;;;;;;11.75;6.25;;;;;;;4.77;68.13;96122.25;5092563;28;20119;-69
2021/10/25 02:23:27;;;;;;;12.48;7.05;;;;;;;4.79;68.27;96124.75;5076008;28;20141;-69
2021/10/25 02:25:53;;;;;;;14.73;7.63;;;;;;;4.82;68.35;96124.63;5093594;28;20043;-69
2021/10/25 02:28:20;;;;;;;15.00;8.18;;;;;;;4.80;68.43;96132.44;5092385;28;20028;-70
2021/10/25 02:30:46;;;;;;;14.48;8.38;;;;;;;4.82;68.29;96140.06;5096346;28;20027;-69
2021/10/25 02:33:11;;;;;;;11.82;6.68;;;;;;;4.74;68.30;96114.66;5130210;27;20043;-69
2021/10/25 02:35:36;;;;;;;10.50;6.93;;;;;;;4.84;68.40;96121.09;5115996;27;20440;-69
2021/10/25 02:38:02;;;;;;;11.38;7.60;;;;;;;4.85;68.50;96115.06;5118369;27;20059;-69
2021/10/25 02:40:28;;;;;;;11.38;7.43;;;;;;;4.86;68.44;96127.03;5113720;28;20099;-69
2021/10/25 02:42:54;;;;;;;15.07;7.50;;;;;;;4.87;68.59;96126.13;5095563;28;20031;-69
2021/10/25 02:45:20;;;;;;;12.73;7.53;;;;;;;5.00;68.42;96135.94;5113846;27;20099;-70
2021/10/25 02:47:46;;;;;;;13.90;7.40;;;;;;;4.96;68.21;96140.41;5119252;27;20497;-69
2021/10/25 02:50:11;;;;;;;13.80;7.05;;;;;;;4.90;68.25;96131.19;5112403;28;20020;-71
2021/10/25 02:52:37;;;;;;;11.75;7.72;;;;;;;4.92;68.08;96131.94;5113508;27;20035;-69
2021/10/25 02:55:03;;;;;;;15.40;7.43;;;;;;;4.95;68.27;96137.88;5113572;28;20458;-70
2021/10/25 02:57:29;;;;;;;12.93;7.40;;;;;;;4.91;68.37;96126.84;5112364;28;20044;-69
2021/10/25 02:59:54;;;;;;;11.48;7.20;;;;;;;4.89;68.35;96126.06;5113466;28;20031;-69
2021/10/25 03:02:20;;;;;;;11.88;6.93;;;;;;;4.86;68.04;96111.59;5114515;27;20027;-69
2021/10/25 03:04:45;;;;;;;11.02;7.07;;;;;;;4.97;68.37;96125.78;5133693;27;20099;-69
2021/10/25 03:07:11;;;;;;;12.27;7.55;;;;;;;4.99;68.08;96129.13;5133705;27;20043;-69
2021/10/25 03:09:36;;;;;;;9.93;6.40;;;;;;;4.99;68.17;96118.84;5124925;27;20180;-69
2021/10/25 03:12:02;;;;;;;14.80;7.38;;;;;;;4.98;68.08;96122.28;5112010;28;20043;-69
2021/10/25 03:14:28;;;;;;;14.73;8.07;;;;;;;4.97;68.20;96123.19;5113061;28;20023;-69
2021/10/25 03:16:53;;;;;;;18.60;8.10;;;;;;;4.95;68.40;96120.69;5131008;27;20039;-69
2021/10/25 03:19:19;;;;;;;10.43;7.28;;;;;;;5.00;68.21;96115.34;5132409;27;20079;-69
2021/10/25 03:21:44;;;;;;;14.45;7.72;;;;;;;5.00;68.26;96116.19;5133368;27;20030;-70
2021/10/25 03:24:10;;;;;;;12.35;7.57;;;;;;;4.84;68.40;96092.78;5127652;27;20485;-69
2021/10/25 03:26:35;;;;;;;14.25;7.40;;;;;;;5.06;68.77;96122.81;5112391;28;20123;-69
2021/10/25 03:29:01;;;;;;;13.15;7.57;;;;;;;5.14;68.43;96113.06;5111873;28;20027;-69
2021/10/25 03:31:27;;;;;;;12.25;7.80;;;;;;;5.07;68.41;96112.47;5128634;27;20489;-69
2021/10/25 03:33:52;;;;;;;18.05;8.50;;;;;;;5.09;68.42;96125.28;5114838;27;20027;-69
2021/10/25 03:36:19;;;;;;;17.83;7.55;;;;;;;5.02;68.79;96109.25;5131848;27;20027;-69
2021/10/25 03:38:45;;;;;;;11.20;7.65;;;;;;;5.05;68.76;96116.00;5097597;27;20031;-70
2021/10/25 03:41:27;;;;;;;12.20;7.78;;;;;;;5.04;68.32;96106.59;5132013;27;20043;-69
2021/10/25 03:44:15;;;;;;;10.95;7.20;;;;;;;5.10;68.33;96109.78;5117414;27;20396;-69
2021/10/25 03:47:05;;;;;;;12.48;7.75;;;;;;;5.10;68.26;96108.94;5123096;27;20481;-69
2021/10/25 03:51:55;;;;;;;12.50;7.97;;;;;;;4.94;68.25;96103.56;5112981;27;20043;-69
2021/10/25 04:00:06;;;;;;;11.85;6.68;;;;;;;5.13;68.56;96112.22;5111328;28;20042;-69
2021/10/25 04:29:30;;;;;;;14.40;8.43;;;;;;;5.06;69.40;96102.22;5132187;27;20034;-69
2021/10/25 04:31:56;;;;;;;14.35;7.38;;;;;;;5.13;69.16;96108.81;5130737;27;20523;-69
2021/10/25 04:34:21;;;;;;;13.90;6.95;;;;;;;5.15;69.38;96114.72;5127239;27;20047;-69
2021/10/25 04:36:47;;;;;;;12.32;6.82;;;;;;;5.17;69.28;96109.50;5111806;28;20291;-69
2021/10/25 04:39:13;;;;;;;12.63;7.05;;;;;;;5.15;69.15;96112.13;5109485;28;20030;-69
2021/10/25 04:41:39;;;;;;;12.57;7.22;;;;;;;5.21;69.33;96119.66;5107521;27;20110;-70
2021/10/25 04:44:04;;;;;;;14.88;7.38;;;;;;;5.26;69.49;96122.00;5113720;27;20034;-70
2021/10/25 04:46:30;;;;;;;12.50;7.93;;;;;;;5.22;69.42;96116.16;5131969;27;20035;-69
2021/10/25 04:48:55;;;;;;;14.75;8.63;;;;;;;5.26;69.20;96115.09;5128217;27;20035;-69
2021/10/25 04:51:21;;;;;;;14.48;9.55;;;;;;;5.29;69.05;96125.31;5093224;28;20044;-69
2021/10/25 04:53:46;;;;;;;15.32;8.57;;;;;;;5.35;68.46;96113.91;5111390;28;20016;-69
2021/10/25 04:56:11;;;;;;;13.18;8.43;;;;;;;5.34;68.35;96115.63;5105934;28;20035;-69
2021/10/25 04:58:37;;;;;;;10.82;7.13;;;;;;;5.20;68.61;96093.94;5095481;28;20030;-69
2021/10/25 05:01:02;;;;;;;17.23;8.48;;;;;;;5.36;68.24;96113.00;5121553;28;20428;-70
2021/10/25 05:03:29;;;;;;;10.60;6.88;;;;;;;5.44;68.24;96130.72;5126898;28;20473;-69
2021/10/25 05:05:54;;;;;;;15.50;8.20;;;;;;;5.44;68.07;96126.41;5120620;27;20102;-69
2021/10/25 05:08:21;;;;;;;12.65;7.90;;;;;;;5.43;67.86;96118.72;5092598;28;20031;-70
2021/10/25 05:10:46;;;;;;;14.40;8.60;;;;;;;5.53;67.88;96140.66;5119666;28;20087;-69
2021/10/25 05:13:12;;;;;;;14.30;7.85;;;;;;;5.55;67.60;96139.69;5130026;28;20031;-69
2021/10/25 05:15:37;;;;;;;11.20;7.60;;;;;;;5.50;67.49;96130.47;5103198;28;20138;-69
2021/10/25 05:18:04;;;;;;;13.98;7.72;;;;;;;5.58;67.58;96133.56;5119874;28;20023;-68
2021/10/25 05:20:29;;;;;;;15.32;7.93;;;;;;;5.64;67.98;96148.78;5122154;27;20046;-69
2021/10/25 05:22:55;;;;;;;13.73;7.28;;;;;;;5.69;68.01;96146.84;5104677;28;20027;-71
2021/10/25 05:25:20;;;;;;;11.65;6.65;;;;;;;5.70;67.95;96145.94;5076894;28;20031;-72
2021/10/25 05:27:46;;;;;;;14.13;8.05;;;;;;;5.72;68.14;96149.28;5093094;28;20024;-69
2021/10/25 05:30:11;;;;;;;17.55;8.32;;;;;;;5.67;67.79;96142.66;5118846;28;20030;-69
2021/10/25 05:32:37;;;;;;;13.23;8.05;;;;;;;5.64;67.72;96141.03;5128976;28;20433;-69
2021/10/25 05:35:02;;;;;;;29.50;18.00;;;;;;;5.68;67.66;96152.88;5122016;28;20019;-69
2021/10/25 05:37:28;;;;;;;20.83;14.27;;;;;;;5.70;68.11;96160.56;5118302;28;20030;-69
2021/10/25 05:39:56;;;;;;;13.68;8.02;;;;;;;5.71;67.86;96159.66;5100585;28;20027;-69
2021/10/25 05:42:21;;;;;;;11.25;7.35;;;;;;;5.70;67.88;96155.41;5109722;28;20032;-69
2021/10/25 05:44:47;;;;;;;17.75;9.40;;;;;;;5.71;68.13;96160.50;5092617;28;20038;-70
2021/10/25 05:47:13;;;;;;;13.30;8.05;;;;;;;5.69;68.42;96162.31;5092739;28;20156;-69
2021/10/25 05:49:39;;;;;;;14.10;8.32;;;;;;;5.81;67.10;96172.09;5112395;28;20028;-69
2021/10/25 05:52:04;;;;;;;14.13;9.57;;;;;;;5.75;66.92;96169.78;5096397;28;20389;-70
2021/10/25 05:54:30;;;;;;;16.95;8.10;;;;;;;5.88;65.55;96166.66;5114891;28;20119;-69
2021/10/25 05:56:56;;;;;;;14.32;8.35;;;;;;;5.94;65.63;96175.03;5113367;27;20053;-69
2021/10/25 05:59:25;;;;;;;13.98;8.10;;;;;;;5.97;65.70;96190.38;5079488;28;20097;-71
2021/10/25 06:01:59;;;;;;;14.73;8.63;;;;;;;6.01;65.58;96183.34;5124590;27;20086;-69
2021/10/25 06:04:26;;;;;;;18.80;8.80;;;;;;;6.13;65.48;96185.41;5101170;27;20046;-69
2021/10/25 06:06:52;;;;;;;14.60;8.35;;;;;;;6.18;65.01;96196.34;5120535;27;20046;-69
2021/10/25 06:09:18;;;;;;;14.80;8.25;;;;;;;6.25;64.98;96191.75;5115899;27;20507;-69
2021/10/25 06:11:44;;;;;;;12.95;8.13;;;;;;;6.21;64.70;96193.66;5120493;27;20031;-70
2021/10/25 06:14:12;;;;;;;13.82;8.68;;;;;;;6.34;64.62;96196.50;5125634;27;20028;-71
2021/10/25 06:16:39;;;;;;;12.98;8.18;;;;;;;6.41;63.91;96197.09;5120798;27;20031;-71
2021/10/25 06:19:10;;;;;;;14.00;8.48;;;;;;;6.47;64.12;96209.72;5113721;27;20027;-71
2021/10/25 06:21:36;;;;;;;15.65;8.57;;;;;;;6.44;64.11;96202.13;5105458;27;20118;-71
2021/10/25 06:24:01;;;;;;;13.48;8.63;;;;;;;6.49;63.51;96208.75;5107196;27;20412;-71
2021/10/25 06:26:27;;;;;;;14.88;8.85;;;;;;;6.48;63.11;96203.66;5121124;27;20053;-71
2021/10/25 06:28:53;;;;;;;14.93;8.60;;;;;;;6.45;63.08;96189.13;5113957;27;20107;-71
2021/10/25 06:31:19;;;;;;;17.23;9.18;;;;;;;6.61;63.36;96220.28;5095481;28;20072;-70
2021/10/25 06:33:46;;;;;;;12.25;8.50;;;;;;;6.65;63.42;96211.47;5113878;28;20069;-72
2021/10/25 06:36:12;;;;;;;11.85;8.20;;;;;;;7.04;64.49;96210.53;5125343;27;20139;-70
2021/10/25 06:38:42;;;;;;;13.00;8.48;;;;;;;7.11;62.87;96204.19;5095659;28;20486;-71
2021/10/25 06:41:08;;;;;;;10.50;8.25;;;;;;;7.51;62.82;96210.03;5112526;28;20031;-70
2021/10/25 06:43:33;;;;;;;16.02;9.10;;;;;;;8.17;65.18;96211.09;5113279;27;20151;-70
2021/10/25 06:45:59;;;;;;;12.27;8.00;;;;;;;8.73;65.85;96215.94;5111998;28;20067;-70
2021/10/25 06:48:24;;;;;;;13.77;8.48;;;;;;;9.40;63.02;96206.22;5130120;27;20053;-71
2021/10/25 06:50:51;;;;;;;14.45;7.78;;;;;;;9.96;61.14;96229.84;5124088;27;20645;-70
2021/10/25 06:53:17;;;;;;;14.00;7.70;;;;;;;10.14;60.26;96220.19;5121335;27;20050;-71
2021/10/25 06:55:45;;;;;;;9.13;7.65;;;;;;;10.29;60.49;96221.88;5085747;27;20476;-71
2021/10/25 06:58:11;;;;;;;11.35;6.60;;;;;;;10.12;54.68;96216.00;5121427;27;20193;-71
2021/10/25 07:00:37;;;;;;;12.68;7.20;;;;;;;10.22;53.69;96215.38;5112562;27;20032;-71
2021/10/25 07:03:03;;;;;;;10.57;6.65;;;;;;;10.30;50.98;96217.50;5096799;28;20035;-71
2021/10/25 07:05:31;;;;;;;10.05;6.43;;;;;;;10.09;51.54;96211.81;5080322;27;20073;-71
2021/10/25 07:07:57;;;;;;;9.23;6.57;;;;;;;10.12;53.27;96203.84;5129572;27;20030;-70
2021/10/25 07:10:22;;;;;;;9.65;6.65;;;;;;;10.20;50.18;96206.81;5130094;27;20019;-71
2021/10/25 07:12:49;;;;;;;13.88;6.72;;;;;;;10.08;50.12;96207.53;5113511;27;20031;-71
2021/10/25 07:15:16;;;;;;;11.30;7.00;;;;;;;9.92;48.58;96211.94;5116336;27;20524;-72
2021/10/25 08:09:30;;;;;;;11.32;6.95;;;;;;;9.78;50.10;96187.66;5093145;27;20039;-69
2021/10/25 08:12:10;;;;;;;10.40;6.55;;;;;;;9.80;48.20;96178.00;5120642;27;20051;-69
2021/10/25 08:14:36;;;;;;;9.18;6.95;;;;;;;10.02;48.09;96192.31;5130390;27;20110;-71
2021/10/25 08:17:02;;;;;;;9.57;6.50;;;;;;;9.98;47.57;96185.66;5129239;27;20239;-70
2021/10/25 08:19:30;;;;;;;13.68;8.32;;;;;;;9.82;48.62;96180.50;5113811;27;20019;-72
2021/10/25 08:22:02;;;;;;;11.45;6.78;;;;;;;9.99;48.12;96192.50;5117137;27;20507;-71
2021/10/25 08:24:29;;;;;;;11.05;6.65;;;;;;;10.13;48.34;96181.31;5113874;27;20488;-71
2021/10/25 08:26:55;;;;;;;10.43;6.63;;;;;;;10.37;47.55;96187.66;5128901;27;20039;-71
2021/10/25 08:29:20;;;;;;;11.45;5.72;;;;;;;10.39;47.30;96184.97;5113744;27;20068;-71
2021/10/25 08:31:53;;;;;;;9.63;6.18;;;;;;;10.39;45.99;96179.75;5109686;28;20054;-71
2021/10/25 08:39:48;;;;;;;9.63;6.07;;;;;;;10.19;45.91;96166.19;5130860;27;20023;-71
2021/10/25 08:42:24;;;;;;;9.40;5.75;;;;;;;10.48;45.60;96179.22;5103829;27;20512;-71
2021/10/25 08:44:54;;;;;;;9.45;6.18;;;;;;;10.67;46.25;96173.72;5130262;27;20027;-70
2021/10/25 08:47:24;;;;;;;11.00;5.03;;;;;;;10.88;45.90;96168.97;5091915;28;20044;-70
2021/10/25 08:49:50;;;;;;;9.77;6.40;;;;;;;11.16;46.03;96163.69;5111224;28;20279;-71
2021/10/25 08:52:20;;;;;;;9.13;5.80;;;;;;;11.23;43.54;96143.34;5104800;28;20489;-71
2021/10/25 08:54:49;;;;;;;9.35;5.05;;;;;;;11.27;43.11;96157.78;5114905;27;20127;-71
2021/10/25 08:57:15;;;;;;;7.95;5.47;;;;;;;11.45;43.98;96157.53;5113412;27;20103;-72
2021/10/25 08:59:40;;;;;;;13.18;6.03;;;;;;;11.46;42.96;96151.41;5092939;28;20024;-69
2021/10/25 09:02:09;;;;;;;7.93;5.55;;;;;;;11.54;42.16;96152.56;5109443;28;20717;-70
2021/10/25 09:04:35;;;;;;;8.27;5.43;;;;;;;11.74;42.39;96150.44;5123041;27;20042;-69
2021/10/25 09:07:01;;;;;;;8.93;5.93;;;;;;;11.78;42.02;96149.28;5092328;28;20068;-70
2021/10/25 09:09:27;;;;;;;10.20;4.95;;;;;;;11.69;41.75;96145.53;5116591;27;20037;-73
2021/10/25 09:12:07;;;;;;;12.35;5.70;;;;;;;11.81;41.83;96152.53;5106588;28;20091;-69
2021/10/25 09:14:32;;;;;;;10.30;5.20;;;;;;;11.80;41.63;96131.78;5094357;28;20023;-69
2021/10/25 09:17:00;;;;;;;10.32;4.85;;;;;;;12.04;42.67;96143.19;5105461;28;20569;-69
2021/10/25 09:19:29;;;;;;;8.30;5.50;;;;;;;12.17;41.29;96142.34;5110339;27;20031;-69
2021/10/25 09:22:06;;;;;;;7.35;5.10;;;;;;;12.15;40.57;96146.84;5106143;28;20036;-69
2021/10/25 09:24:32;;;;;;;10.18;5.43;;;;;;;11.98;40.53;96133.22;5097006;28;20031;-69
2021/10/25 09:27:01;;;;;;;7.32;5.03;;;;;;;12.05;40.70;96142.25;5126852;27;20035;-69
2021/10/25 09:29:27;;;;;;;11.07;5.95;;;;;;;11.94;40.86;96133.50;5138139;27;20023;-69
2021/10/25 09:31:56;;;;;;;11.27;6.07;;;;;;;12.03;41.92;96130.28;5147622;27;20039;-68
2021/10/25 09:34:33;;;;;;;7.47;5.28;;;;;;;12.04;40.19;96135.38;5116996;27;20027;-69
2021/10/25 09:37:05;;;;;;;9.93;5.35;;;;;;;12.10;40.91;96113.31;5128660;27;20125;-69
2021/10/25 09:50:42;;;;;;;6.88;4.60;;;;;;;12.01;38.68;96101.75;5101735;27;20504;-69
2021/10/25 09:53:09;;;;;;;7.10;4.53;;;;;;;12.18;39.26;96110.19;5137509;27;20151;-69
2021/10/25 09:55:42;;;;;;;9.20;5.82;;;;;;;12.15;39.14;96098.19;5099010;27;20038;-69
2021/10/25 09:58:30;;;;;;;10.45;4.90;;;;;;;12.18;38.89;96103.19;5155667;27;20015;-71
2021/10/25 10:00:56;;;;;;;8.75;4.20;;;;;;;12.23;38.42;96105.47;5155152;27;20045;-70
2021/10/25 10:03:22;;;;;;;6.22;3.90;;;;;;;12.16;38.46;96099.03;5126271;27;20423;-71
2021/10/25 10:05:50;;;;;;;6.43;3.75;;;;;;;12.16;39.05;96099.03;5123930;27;20035;-70
2021/10/25 10:08:16;;;;;;;6.63;3.67;;;;;;;12.18;38.93;96092.78;5099333;27;20424;-70
2021/10/25 10:10:41;;;;;;;6.55;4.38;;;;;;;12.06;38.31;96083.19;5111262;27;20035;-70
2021/10/25 10:13:12;;;;;;;8.70;4.30;;;;;;;12.01;39.28;96091.31;5115355;27;20031;-71
2021/10/25 10:15:40;;;;;;;12.95;4.25;;;;;;;12.01;38.47;96083.50;5099576;27;20036;-71
2021/10/25 10:18:18;;;;;;;6.22;4.70;;;;;;;11.95;38.95;96067.47;5118542;27;20292;-70
2021/10/25 10:20:43;;;;;;;7.25;4.63;;;;;;;12.06;38.77;96077.97;5097874;27;20500;-70
2021/10/25 10:23:15;;;;;;;7.65;4.38;;;;;;;12.03;39.47;96078.19;5094940;28;20028;-70
2021/10/25 10:25:51;;;;;;;7.70;3.88;;;;;;;12.19;39.65;96070.16;5101382;27;20035;-70
2021/10/25 10:28:19;;;;;;;7.60;4.18;;;;;;;12.28;39.43;96067.72;5113472;27;20420;-70
2021/10/25 10:30:55;;;;;;;7.65;4.07;;;;;;;12.32;38.13;96052.75;5126836;27;20465;-70
2021/10/25 10:33:40;;;;;;;8.50;4.38;;;;;;;12.36;38.59;96054.16;5132313;27;20051;-70
2021/10/25 10:36:10;;;;;;;7.13;4.13;;;;;;;12.21;39.02;96053.47;5129583;27;20032;-71
2021/10/25 10:39:01;;;;;;;6.38;3.80;;;;;;;12.29;38.53;96043.34;5134297;27;20019;-70
2021/10/25 10:41:37;;;;;;;8.15;4.00;;;;;;;12.32;38.22;96031.88;5132608;27;20464;-70
2021/10/25 10:44:09;;;;;;;8.35;3.97;;;;;;;12.16;37.25;96031.28;5133810;27;20023;-70
2021/10/25 10:46:50;;;;;;;10.88;3.80;;;;;;;12.09;38.10;96028.31;5099712;27;20031;-69
2021/10/25 10:49:37;;;;;;;8.95;4.20;;;;;;;12.08;37.84;96024.84;5116087;27;20043;-71
2021/10/25 10:52:19;;;;;;;6.47;3.45;;;;;;;11.99;36.17;96035.91;5124582;27;20067;-72
2021/10/25 10:55:10;;;;;;;7.45;3.53;;;;;;;11.95;36.20;96024.03;5132379;27;20066;-69
2021/10/25 10:57:58;;;;;;;7.03;3.10;;;;;;;11.92;37.46;96026.84;5121757;27;20032;-71
2021/10/25 11:00:30;;;;;;;7.88;3.35;;;;;;;11.87;36.85;96021.13;5115725;27;20471;-71
2021/10/25 11:03:00;;;;;;;8.13;3.95;;;;;;;11.82;37.09;95991.94;5125303;27;20035;-71
2021/10/25 11:05:36;;;;;;;5.95;3.50;;;;;;;12.02;37.68;96008.81;5130618;27;20031;-69
2021/10/25 11:08:13;;;;;;;5.35;3.95;;;;;;;12.11;37.99;96004.72;5111658;28;20031;-71
2021/10/25 11:10:41;;;;;;;5.57;3.15;;;;;;;12.12;38.28;95996.81;5129662;27;20024;-70
2021/10/25 11:13:12;;;;;;;14.68;3.85;;;;;;;12.21;38.73;96003.16;5112886;27;20023;-71
2021/10/25 11:15:41;;;;;;;6.55;3.30;;;;;;;12.28;37.81;95999.16;5132001;27;20043;-70
2021/10/25 11:18:07;;;;;;;5.95;3.03;;;;;;;12.33;36.39;95998.84;5153824;27;20134;-70
2021/10/25 11:20:32;;;;;;;6.30;3.38;;;;;;;12.39;36.33;95993.19;5152576;27;20043;-70
2021/10/25 11:23:03;;;;;;;5.40;3.40;;;;;;;12.34;36.25;95995.28;5139944;27;20413;-70
2021/10/25 11:25:35;;;;;;;6.45;3.35;;;;;;;12.26;36.38;95993.25;5113434;27;20038;-71
2021/10/25 11:28:17;;;;;;;7.22;3.20;;;;;;;12.36;36.42;95991.63;5136255;27;20019;-71
2021/10/25 11:30:42;;;;;;;7.78;2.97;;;;;;;12.30;35.13;95979.06;5152336;27;20038;-70
2021/10/25 11:33:08;;;;;;;9.30;3.58;;;;;;;12.20;35.44;95971.06;5131344;27;20044;-71
2021/10/25 11:35:34;;;;;;;5.03;3.00;;;;;;;12.19;34.61;95979.81;5131173;27;20393;-71
2021/10/25 11:38:02;;;;;;;6.80;3.92;;;;;;;12.10;35.80;95959.63;5109609;27;20027;-71
2021/10/25 11:40:28;;;;;;;6.97;3.85;;;;;;;12.21;36.34;95972.72;5130659;27;20397;-70
2021/10/25 11:43:01;;;;;;;7.20;3.60;;;;;;;12.23;36.83;95975.19;5110165;27;20024;-70
2021/10/25 11:45:27;;;;;;;8.02;3.55;;;;;;;12.28;36.40;95973.09;5112252;27;20419;-71
2021/10/25 11:47:52;;;;;;;6.00;3.60;;;;;;;12.31;35.96;95967.69;5131991;27;20023;-71
2021/10/25 11:50:19;;;;;;;5.78;3.22;;;;;;;12.29;36.04;95956.56;5131464;27;20098;-71
2021/10/25 11:52:46;;;;;;;5.78;3.20;;;;;;;12.37;36.04;95974.22;5113997;27;20077;-70
2021/10/25 11:55:14;;;;;;;5.28;3.20;;;;;;;12.33;35.42;95960.59;5117403;27;20025;-71
2021/10/25 11:57:48;;;;;;;5.20;3.17;;;;;;;12.30;35.81;95955.59;5133169;27;20030;-71
2021/10/25 12:00:14;;;;;;;6.10;3.35;;;;;;;12.26;36.16;95949.78;5144506;27;20397;-72
2021/10/25 12:02:39;;;;;;;14.48;9.63;;;;;;;12.39;37.20;95960.16;5122454;27;20046;-70
2021/10/25 12:05:06;;;;;;;7.55;3.60;;;;;;;12.40;36.19;95956.63;5113109;27;20035;-71
2021/10/25 12:07:32;;;;;;;7.97;3.38;;;;;;;12.39;35.94;95943.69;5129988;27;20039;-71
2021/10/25 12:10:02;;;;;;;6.45;3.05;;;;;;;12.42;35.00;95949.50;5106970;27;20528;-72
2021/10/25 12:12:28;;;;;;;6.32;3.40;;;;;;;12.43;35.33;95955.56;5127509;27;20031;-71
2021/10/25 12:14:57;;;;;;;5.90;3.05;;;;;;;12.32;34.59;95937.28;5130884;27;20035;-71
2021/10/25 12:17:26;;;;;;;7.75;3.42;;;;;;;12.29;35.36;95943.53;5127097;27;20036;-70
2021/10/25 12:19:52;;;;;;;5.35;3.50;;;;;;;12.25;35.42;95936.84;5130026;27;20031;-70
2021/10/25 12:22:19;;;;;;;5.25;3.33;;;;;;;12.30;35.51;95942.56;5130477;27;20565;-70
2021/10/25 12:24:46;;;;;;;5.72;3.72;;;;;;;12.21;36.33;95932.81;5117172;27;20067;-71
2021/10/25 12:27:25;;;;;;;8.73;4.00;;;;;;;12.17;36.08;95933.97;5104881;28;20044;-71
2021/10/25 12:30:03;;;;;;;5.10;3.67;;;;;;;12.16;35.51;95924.50;5093604;28;20036;-70
2021/10/25 12:32:29;;;;;;;6.80;3.25;;;;;;;12.24;36.15;95930.00;5107851;27;20184;-70
2021/10/25 12:34:55;;;;;;;7.68;3.10;;;;;;;12.24;36.14;95932.59;5117507;27;20027;-70
2021/10/25 12:37:28;;;;;;;7.30;3.05;;;;;;;12.27;36.16;95927.16;5115893;27;20035;-70
2021/10/25 12:39:55;;;;;;;7.53;3.03;;;;;;;12.28;36.01;95918.41;5114196;27;20050;-70
2021/10/25 12:42:21;;;;;;;7.63;3.00;;;;;;;12.39;35.55;95921.06;5130266;27;20396;-71
2021/10/25 12:44:49;;;;;;;5.72;2.88;;;;;;;12.40;33.19;95912.31;5108589;28;20032;-70
2021/10/25 12:47:15;;;;;;;6.97;3.20;;;;;;;12.36;34.82;95921.28;5112649;27;20500;-70
2021/10/25 12:49:48;;;;;;;4.63;2.42;;;;;;;12.30;34.52;95921.72;5121708;27;20055;-70
2021/10/25 12:52:14;;;;;;;9.07;2.70;;;;;;;12.28;34.84;95913.19;5115057;27;20031;-69
2021/10/25 12:54:40;;;;;;;6.20;2.80;;;;;;;12.25;34.34;95910.81;5115341;27;20035;-71
2021/10/25 12:57:22;;;;;;;4.55;2.60;;;;;;;12.18;34.15;95913.03;5115821;27;20023;-71
2021/10/25 13:00:16;;;;;;;5.95;2.88;;;;;;;12.16;35.10;95917.50;5121957;27;20032;-71
2021/10/25 13:02:47;;;;;;;5.30;2.58;;;;;;;12.13;35.23;95916.91;5104694;28;20032;-70
2021/10/25 13:05:15;;;;;;;5.47;2.80;;;;;;;12.18;35.03;95915.63;5114090;27;20140;-70
2021/10/25 13:07:48;;;;;;;4.00;2.30;;;;;;;12.11;34.90;95916.19;5117544;27;20032;-70
2021/10/25 13:10:15;;;;;;;5.00;2.90;;;;;;;12.02;35.96;95910.69;5110261;28;20398;-71
2021/10/25 13:12:40;;;;;;;7.13;2.78;;;;;;;12.06;35.52;95914.75;5127048;28;20512;-71
2021/10/25 13:15:07;;;;;;;7.63;3.20;;;;;;;12.03;35.23;95924.53;5125475;28;20039;-71
2021/10/25 13:17:32;;;;;;;5.53;2.78;;;;;;;12.01;35.52;95926.44;5102899;28;20024;-71
2021/10/25 13:19:58;;;;;;;6.07;3.10;;;;;;;12.06;34.20;95917.34;5113094;27;20428;-72